sensor_id;sensor_type;location;lat;lon;timestamp;pressure;altitude;pressure_sealevel;temperature
65316;BMP280;51920;53.952;10.292;2024-02-15T00:00:58;100965.59;;;11.04
65316;BMP280;51920;53.952;10.292;2024-02-15T00:03:26;100966.31;;;11.01
65316;BMP280;51920;53.952;10.292;2024-02-15T00:05:53;100968.28;;;11.04
65316;BMP280;51920;53.952;10.292;2024-02-15T00:08:20;100972.50;;;11.05
65316;BMP280;51920;53.952;10.292;2024-02-15T00:10:47;100974.09;;;11.06
65316;BMP280;51920;53.952;10.292;2024-02-15T00:13:14;100976.84;;;11.09
65316;BMP280;51920;53.952;10.292;2024-02-15T00:15:41;100973.31;;;11.09
65316;BMP280;51920;53.952;10.292;2024-02-15T00:18:08;100969.44;;;11.06
65316;BMP280;51920;53.952;10.292;2024-02-15T00:20:35;100971.00;;;11.04
65316;BMP280;51920;53.952;10.292;2024-02-15T00:23:02;100969.44;;;11.03
65316;BMP280;51920;53.952;10.292;2024-02-15T00:25:29;100969.44;;;11.03
65316;BMP280;51920;53.952;10.292;2024-02-15T00:28:05;100965.13;;;11.02
65316;BMP280;51920;53.952;10.292;2024-02-15T00:30:32;100964.00;;;11.03
65316;BMP280;51920;53.952;10.292;2024-02-15T00:32:58;100971.72;;;11.01
65316;BMP280;51920;53.952;10.292;2024-02-15T00:35:26;100959.72;;;11.02
65316;BMP280;51920;53.952;10.292;2024-02-15T00:37:54;100954.69;;;11.00
65316;BMP280;51920;53.952;10.292;2024-02-15T00:40:21;100956.66;;;11.03
65316;BMP280;51920;53.952;10.292;2024-02-15T00:42:47;100955.94;;;11.10
65316;BMP280;51920;53.952;10.292;2024-02-15T00:45:14;100961.69;;;11.05
65316;BMP280;51920;53.952;10.292;2024-02-15T00:47:42;100960.94;;;11.08
65316;BMP280;51920;53.952;10.292;2024-02-15T00:50:10;100954.78;;;11.11
65316;BMP280;51920;53.952;10.292;2024-02-15T00:52:37;100957.06;;;11.12
65316;BMP280;51920;53.952;10.292;2024-02-15T00:55:04;100960.16;;;11.07
65316;BMP280;51920;53.952;10.292;2024-02-15T00:57:31;100958.59;;;11.03
65316;BMP280;51920;53.952;10.292;2024-02-15T00:59:58;100962.44;;;11.02
65316;BMP280;51920;53.952;10.292;2024-02-15T01:02:26;100960.88;;;11.01
65316;BMP280;51920;53.952;10.292;2024-02-15T01:04:54;100963.59;;;11.01
65316;BMP280;51920;53.952;10.292;2024-02-15T01:07:24;100971.78;;;11.08
65316;BMP280;51920;53.952;10.292;2024-02-15T01:09:54;100963.22;;;11.02
65316;BMP280;51920;53.952;10.292;2024-02-15T01:12:21;100971.00;;;11.04
65316;BMP280;51920;53.952;10.292;2024-02-15T01:14:48;100968.66;;;11.06
65316;BMP280;51920;53.952;10.292;2024-02-15T01:17:15;100968.28;;;11.04
65316;BMP280;51920;53.952;10.292;2024-02-15T01:19:42;100969.84;;;11.08
65316;BMP280;51920;53.952;10.292;2024-02-15T01:22:09;100971.78;;;11.08
65316;BMP280;51920;53.952;10.292;2024-02-15T01:24:36;100972.91;;;11.07
65316;BMP280;51920;53.952;10.292;2024-02-15T01:27:03;100972.50;;;11.05
65316;BMP280;51920;53.952;10.292;2024-02-15T01:29:30;100967.88;;;11.05
65316;BMP280;51920;53.952;10.292;2024-02-15T01:31:56;100972.56;;;11.12
65316;BMP280;51920;53.952;10.292;2024-02-15T01:34:23;100971.81;;;11.11
65316;BMP280;51920;53.952;10.292;2024-02-15T01:36:50;100977.63;;;11.13
65316;BMP280;51920;53.952;10.292;2024-02-15T01:39:17;100970.63;;;11.09
65316;BMP280;51920;53.952;10.292;2024-02-15T01:41:48;100974.91;;;11.10
65316;BMP280;51920;53.952;10.292;2024-02-15T01:44:15;100981.94;;;11.18
65316;BMP280;51920;53.952;10.292;2024-02-15T01:46:42;100972.59;;;11.15
65316;BMP280;51920;53.952;10.292;2024-02-15T01:49:10;100969.06;;;11.08
65316;BMP280;51920;53.952;10.292;2024-02-15T01:51:39;100967.50;;;11.07
65316;BMP280;51920;53.952;10.292;2024-02-15T01:54:07;100967.13;;;11.08
65316;BMP280;51920;53.952;10.292;2024-02-15T01:56:34;100971.00;;;11.07
65316;BMP280;51920;53.952;10.292;2024-02-15T01:59:01;100965.97;;;11.06
65316;BMP280;51920;53.952;10.292;2024-02-15T02:01:30;100964.84;;;11.14
65316;BMP280;51920;53.952;10.292;2024-02-15T02:04:00;100963.69;;;11.15
65316;BMP280;51920;53.952;10.292;2024-02-15T02:06:27;100967.91;;;11.12
65316;BMP280;51920;53.952;10.292;2024-02-15T02:08:54;100961.72;;;11.12
65316;BMP280;51920;53.952;10.292;2024-02-15T02:11:23;100954.78;;;11.14
65316;BMP280;51920;53.952;10.292;2024-02-15T02:13:51;100968.00;;;11.16
65316;BMP280;51920;53.952;10.292;2024-02-15T02:16:28;100966.78;;;11.13
65316;BMP280;51920;53.952;10.292;2024-02-15T02:18:56;100972.56;;;11.12
65316;BMP280;51920;53.952;10.292;2024-02-15T02:21:25;100964.44;;;11.12
65316;BMP280;51920;53.952;10.292;2024-02-15T02:23:53;100951.72;;;11.16
65316;BMP280;51920;53.952;10.292;2024-02-15T02:26:22;100959.84;;;11.16
65316;BMP280;51920;53.952;10.292;2024-02-15T02:28:50;100959.84;;;11.16
65316;BMP280;51920;53.952;10.292;2024-02-15T02:31:17;100955.56;;;11.15
65316;BMP280;51920;53.952;10.292;2024-02-15T02:33:52;100955.97;;;11.17
65316;BMP280;51920;53.952;10.292;2024-02-15T02:36:21;100964.88;;;11.17
65316;BMP280;51920;53.952;10.292;2024-02-15T02:38:48;100970.69;;;11.16
65316;BMP280;51920;53.952;10.292;2024-02-15T02:41:16;100966.03;;;11.16
65316;BMP280;51920;53.952;10.292;2024-02-15T02:43:45;100970.31;;;11.17
65316;BMP280;51920;53.952;10.292;2024-02-15T02:46:12;100977.25;;;11.15
65316;BMP280;51920;53.952;10.292;2024-02-15T02:48:39;100970.69;;;11.16
65316;BMP280;51920;53.952;10.292;2024-02-15T02:51:07;100969.53;;;11.17
65316;BMP280;51920;53.952;10.292;2024-02-15T02:53:34;100965.69;;;11.22
65316;BMP280;51920;53.952;10.292;2024-02-15T02:56:02;100968.03;;;11.23
65316;BMP280;51920;53.952;10.292;2024-02-15T02:58:30;100966.13;;;11.27
65316;BMP280;51920;53.952;10.292;2024-02-15T03:00:57;100969.19;;;11.22
65316;BMP280;51920;53.952;10.292;2024-02-15T03:03:27;100973.81;;;11.18
65316;BMP280;51920;53.952;10.292;2024-02-15T03:05:54;100973.03;;;11.21
65316;BMP280;51920;53.952;10.292;2024-02-15T03:08:21;100966.09;;;11.24
65316;BMP280;51920;53.952;10.292;2024-02-15T03:10:49;100964.94;;;11.25
65316;BMP280;51920;53.952;10.292;2024-02-15T03:13:16;100957.97;;;11.24
65316;BMP280;51920;53.952;10.292;2024-02-15T03:15:46;100958.75;;;11.28
65316;BMP280;51920;53.952;10.292;2024-02-15T03:18:16;100955.66;;;11.26
65316;BMP280;51920;53.952;10.292;2024-02-15T03:20:43;100956.03;;;11.24
65316;BMP280;51920;53.952;10.292;2024-02-15T03:23:10;100964.16;;;11.28
65316;BMP280;51920;53.952;10.292;2024-02-15T03:25:38;100954.88;;;11.25
65316;BMP280;51920;53.952;10.292;2024-02-15T03:28:05;100959.56;;;11.32
65316;BMP280;51920;53.952;10.292;2024-02-15T03:30:32;100966.56;;;11.36
65316;BMP280;51920;53.952;10.292;2024-02-15T03:33:01;100974.31;;;11.34
65316;BMP280;51920;53.952;10.292;2024-02-15T03:35:30;100974.66;;;11.29
65316;BMP280;51920;53.952;10.292;2024-02-15T03:37:58;100978.97;;;11.37
65316;BMP280;51920;53.952;10.292;2024-02-15T03:40:26;100980.53;;;11.38
65316;BMP280;51920;53.952;10.292;2024-02-15T03:42:53;100975.47;;;11.37
65316;BMP280;51920;53.952;10.292;2024-02-15T03:45:20;100974.31;;;11.38
65316;BMP280;51920;53.952;10.292;2024-02-15T03:47:49;100983.25;;;11.38
65316;BMP280;51920;53.952;10.292;2024-02-15T03:50:19;100982.09;;;11.39
65316;BMP280;51920;53.952;10.292;2024-02-15T03:52:48;100984.41;;;11.37
65316;BMP280;51920;53.952;10.292;2024-02-15T03:55:16;100985.19;;;11.38
65316;BMP280;51920;53.952;10.292;2024-02-15T03:57:42;100987.53;;;11.39
65316;BMP280;51920;53.952;10.292;2024-02-15T04:00:10;100991.41;;;11.42
65316;BMP280;51920;53.952;10.292;2024-02-15T04:02:38;100987.88;;;11.38
65316;BMP280;51920;53.952;10.292;2024-02-15T04:05:07;100992.53;;;11.37
65316;BMP280;51920;53.952;10.292;2024-02-15T04:07:35;100990.19;;;11.36
65316;BMP280;51920;53.952;10.292;2024-02-15T04:10:04;100981.25;;;11.32
65316;BMP280;51920;53.952;10.292;2024-02-15T04:12:32;100982.47;;;11.34
65316;BMP280;51920;53.952;10.292;2024-02-15T04:14:59;100983.59;;;11.33
65316;BMP280;51920;53.952;10.292;2024-02-15T04:17:38;100979.75;;;11.34
65316;BMP280;51920;53.952;10.292;2024-02-15T04:20:06;100979.75;;;11.34
65316;BMP280;51920;53.952;10.292;2024-02-15T04:22:33;100990.59;;;11.34
65316;BMP280;51920;53.952;10.292;2024-02-15T04:25:07;100982.19;;;11.54
65316;BMP280;51920;53.952;10.292;2024-02-15T04:27:37;100993.72;;;11.40
65316;BMP280;51920;53.952;10.292;2024-02-15T04:30:04;100985.94;;;11.38
65316;BMP280;51920;53.952;10.292;2024-02-15T04:32:35;100985.94;;;11.38
65316;BMP280;51920;53.952;10.292;2024-02-15T04:35:03;100984.78;;;11.36
65316;BMP280;51920;53.952;10.292;2024-02-15T04:37:32;100984.41;;;11.34
65316;BMP280;51920;53.952;10.292;2024-02-15T04:40:01;100985.59;;;11.44
65316;BMP280;51920;53.952;10.292;2024-02-15T04:42:38;100986.72;;;11.35
65316;BMP280;51920;53.952;10.292;2024-02-15T04:45:06;100992.91;;;11.36
65316;BMP280;51920;53.952;10.292;2024-02-15T04:47:38;100996.00;;;11.34
65316;BMP280;51920;53.952;10.292;2024-02-15T04:50:06;100994.44;;;11.37
65316;BMP280;51920;53.952;10.292;2024-02-15T04:52:33;100993.31;;;11.34
65316;BMP280;51920;53.952;10.292;2024-02-15T04:55:01;100995.25;;;11.37
65316;BMP280;51920;53.952;10.292;2024-02-15T04:57:31;100999.06;;;11.29
65316;BMP280;51920;53.952;10.292;2024-02-15T04:59:59;100994.50;;;11.44
65316;BMP280;51920;53.952;10.292;2024-02-15T05:02:26;100995.25;;;11.37
65316;BMP280;51920;53.952;10.292;2024-02-15T05:04:53;100997.59;;;11.39
65316;BMP280;51920;53.952;10.292;2024-02-15T05:07:23;101002.22;;;11.38
65316;BMP280;51920;53.952;10.292;2024-02-15T05:09:50;101002.94;;;11.32
65316;BMP280;51920;53.952;10.292;2024-02-15T05:12:23;101006.09;;;11.37
65316;BMP280;51920;53.952;10.292;2024-02-15T05:14:51;101008.00;;;11.37
65316;BMP280;51920;53.952;10.292;2024-02-15T05:17:18;101011.16;;;11.39
65316;BMP280;51920;53.952;10.292;2024-02-15T05:19:44;101010.34;;;11.38
65316;BMP280;51920;53.952;10.292;2024-02-15T05:22:11;101013.09;;;11.42
65316;BMP280;51920;53.952;10.292;2024-02-15T05:24:38;101015.44;;;11.44
65316;BMP280;51920;53.952;10.292;2024-02-15T05:27:05;101012.38;;;11.49
65316;BMP280;51920;53.952;10.292;2024-02-15T05:29:32;101008.88;;;11.45
65316;BMP280;51920;53.952;10.292;2024-02-15T05:32:03;101010.41;;;11.46
65316;BMP280;51920;53.952;10.292;2024-02-15T05:34:29;101003.84;;;11.43
65316;BMP280;51920;53.952;10.292;2024-02-15T05:36:56;101008.47;;;11.43
65316;BMP280;51920;53.952;10.292;2024-02-15T05:39:23;101013.47;;;11.40
65316;BMP280;51920;53.952;10.292;2024-02-15T05:41:51;101003.84;;;11.43
65316;BMP280;51920;53.952;10.292;2024-02-15T05:44:18;101013.47;;;11.40
65316;BMP280;51920;53.952;10.292;2024-02-15T05:46:47;101014.69;;;11.43
65316;BMP280;51920;53.952;10.292;2024-02-15T05:49:14;101013.09;;;11.42
65316;BMP280;51920;53.952;10.292;2024-02-15T05:51:44;101004.56;;;11.44
65316;BMP280;51920;53.952;10.292;2024-02-15T05:54:11;101008.06;;;11.40
65316;BMP280;51920;53.952;10.292;2024-02-15T05:56:38;101003.03;;;11.39
65316;BMP280;51920;53.952;10.292;2024-02-15T05:59:05;101005.34;;;11.40
65316;BMP280;51920;53.952;10.292;2024-02-15T06:01:37;101008.53;;;11.50
65316;BMP280;51920;53.952;10.292;2024-02-15T06:04:05;101006.91;;;11.42
65316;BMP280;51920;53.952;10.292;2024-02-15T06:06:35;101003.84;;;11.47
65316;BMP280;51920;53.952;10.292;2024-02-15T06:09:02;101008.88;;;11.45
65316;BMP280;51920;53.952;10.292;2024-02-15T06:11:30;101010.78;;;11.44
65316;BMP280;51920;53.952;10.292;2024-02-15T06:13:57;101003.84;;;11.47
65316;BMP280;51920;53.952;10.292;2024-02-15T06:16:24;101009.31;;;11.50
65316;BMP280;51920;53.952;10.292;2024-02-15T06:18:51;101011.63;;;11.52
65316;BMP280;51920;53.952;10.292;2024-02-15T06:21:18;101017.81;;;11.49
65316;BMP280;51920;53.952;10.292;2024-02-15T06:23:47;101007.78;;;11.56
65316;BMP280;51920;53.952;10.292;2024-02-15T06:26:17;101012.03;;;11.54
65316;BMP280;51920;53.952;10.292;2024-02-15T06:28:44;101020.16;;;11.54
65316;BMP280;51920;53.952;10.292;2024-02-15T06:31:44;101018.25;;;11.58
65316;BMP280;51920;53.952;10.292;2024-02-15T06:34:29;101012.03;;;11.54
65316;BMP280;51920;53.952;10.292;2024-02-15T06:37:35;101020.19;;;11.57
65316;BMP280;51920;53.952;10.292;2024-02-15T06:40:31;101020.97;;;11.58
65316;BMP280;51920;53.952;10.292;2024-02-15T06:42:58;101017.88;;;11.59
65316;BMP280;51920;53.952;10.292;2024-02-15T06:45:25;101026.41;;;11.58
65316;BMP280;51920;53.952;10.292;2024-02-15T06:47:53;101024.47;;;11.58
65316;BMP280;51920;53.952;10.292;2024-02-15T06:50:20;101028.72;;;11.56
65316;BMP280;51920;53.952;10.292;2024-02-15T06:52:47;101032.19;;;11.56
65316;BMP280;51920;53.952;10.292;2024-02-15T06:55:16;101031.81;;;11.58
65316;BMP280;51920;53.952;10.292;2024-02-15T06:57:44;101031.00;;;11.54
65316;BMP280;51920;53.952;10.292;2024-02-15T07:00:11;101027.94;;;11.55
65316;BMP280;51920;53.952;10.292;2024-02-15T07:02:42;101029.13;;;11.58
65316;BMP280;51920;53.952;10.292;2024-02-15T07:05:11;101030.66;;;11.55
65316;BMP280;51920;53.952;10.292;2024-02-15T07:07:37;101028.72;;;11.56
65316;BMP280;51920;53.952;10.292;2024-02-15T07:10:06;101034.91;;;11.56
65316;BMP280;51920;53.952;10.292;2024-02-15T07:12:33;101038.78;;;11.59
65316;BMP280;51920;53.952;10.292;2024-02-15T07:15:00;101021.34;;;11.56
65316;BMP280;51920;53.952;10.292;2024-02-15T07:17:28;101026.41;;;11.58
65316;BMP280;51920;53.952;10.292;2024-02-15T07:19:56;101032.63;;;11.62
65316;BMP280;51920;53.952;10.292;2024-02-15T07:22:22;101026.84;;;11.74
65316;BMP280;51920;53.952;10.292;2024-02-15T07:24:49;101030.38;;;11.71
65316;BMP280;51920;53.952;10.292;2024-02-15T07:27:16;101020.63;;;11.63
65316;BMP280;51920;53.952;10.292;2024-02-15T07:29:45;101016.44;;;11.73
65316;BMP280;51920;53.952;10.292;2024-02-15T07:32:12;101023.38;;;11.70
65316;BMP280;51920;53.952;10.292;2024-02-15T07:34:38;101018.69;;;11.67
65316;BMP280;51920;53.952;10.292;2024-02-15T07:37:07;101026.81;;;11.67
65316;BMP280;51920;53.952;10.292;2024-02-15T07:39:33;101031.50;;;11.70
65316;BMP280;51920;53.952;10.292;2024-02-15T07:42:03;101042.00;;;11.75
65316;BMP280;51920;53.952;10.292;2024-02-15T07:44:31;101044.31;;;11.73
65316;BMP280;51920;53.952;10.292;2024-02-15T07:46:59;101044.72;;;11.72
65316;BMP280;51920;53.952;10.292;2024-02-15T07:49:28;101046.66;;;11.75
65316;BMP280;51920;53.952;10.292;2024-02-15T07:51:55;101055.56;;;11.75
65316;BMP280;51920;53.952;10.292;2024-02-15T07:54:22;101048.25;;;11.79
65316;BMP280;51920;53.952;10.292;2024-02-15T07:56:49;101047.47;;;11.79
65316;BMP280;51920;53.952;10.292;2024-02-15T07:59:16;101057.56;;;11.78
65316;BMP280;51920;53.952;10.292;2024-02-15T08:01:43;101055.19;;;11.77
65316;BMP280;51920;53.952;10.292;2024-02-15T08:04:12;101046.69;;;11.82
65316;BMP280;51920;53.952;10.292;2024-02-15T08:06:40;101050.59;;;11.85
65316;BMP280;51920;53.952;10.292;2024-02-15T08:09:08;101047.50;;;11.86
65316;BMP280;51920;53.952;10.292;2024-02-15T08:11:40;101045.97;;;11.89
65316;BMP280;51920;53.952;10.292;2024-02-15T08:14:07;101042.47;;;11.88
65316;BMP280;51920;53.952;10.292;2024-02-15T08:16:38;101042.47;;;11.92
65316;BMP280;51920;53.952;10.292;2024-02-15T08:19:07;101042.13;;;11.93
65316;BMP280;51920;53.952;10.292;2024-02-15T08:21:34;101042.13;;;11.93
65316;BMP280;51920;53.952;10.292;2024-02-15T08:24:04;101048.31;;;11.94
65316;BMP280;51920;53.952;10.292;2024-02-15T08:26:33;101036.69;;;11.93
65316;BMP280;51920;53.952;10.292;2024-02-15T08:29:00;101041.75;;;11.95
65316;BMP280;51920;53.952;10.292;2024-02-15T08:31:27;101044.47;;;11.98
65316;BMP280;51920;53.952;10.292;2024-02-15T08:33:54;101042.91;;;11.97
65316;BMP280;51920;53.952;10.292;2024-02-15T08:36:20;101045.28;;;12.02
65316;BMP280;51920;53.952;10.292;2024-02-15T08:38:51;101044.09;;;12.00
65316;BMP280;51920;53.952;10.292;2024-02-15T08:41:18;101044.50;;;12.06
65316;BMP280;51920;53.952;10.292;2024-02-15T08:43:47;101044.50;;;12.02
65316;BMP280;51920;53.952;10.292;2024-02-15T08:46:17;101041.41;;;12.07
65316;BMP280;51920;53.952;10.292;2024-02-15T08:48:43;101045.69;;;12.08
65316;BMP280;51920;53.952;10.292;2024-02-15T08:51:11;101049.97;;;12.09
65316;BMP280;51920;53.952;10.292;2024-02-15T08:53:38;101050.34;;;12.08
65316;BMP280;51920;53.952;10.292;2024-02-15T08:56:05;101046.84;;;12.07
65316;BMP280;51920;53.952;10.292;2024-02-15T08:58:32;101047.63;;;12.11
65316;BMP280;51920;53.952;10.292;2024-02-15T09:00:59;101046.13;;;12.17
65316;BMP280;51920;53.952;10.292;2024-02-15T09:03:26;101040.31;;;12.15
65316;BMP280;51920;53.952;10.292;2024-02-15T09:05:53;101033.31;;;12.21
65316;BMP280;51920;53.952;10.292;2024-02-15T09:08:20;101040.72;;;12.24
65316;BMP280;51920;53.952;10.292;2024-02-15T09:10:49;101039.19;;;12.31
65316;BMP280;51920;53.952;10.292;2024-02-15T09:13:16;101036.09;;;12.32
65316;BMP280;51920;53.952;10.292;2024-02-15T09:15:43;101039.22;;;12.45
65316;BMP280;51920;53.952;10.292;2024-02-15T09:18:10;101043.13;;;12.44
65316;BMP280;51920;53.952;10.292;2024-02-15T09:20:37;101042.38;;;12.54
65316;BMP280;51920;53.952;10.292;2024-02-15T09:23:06;101045.09;;;12.54
65316;BMP280;51920;53.952;10.292;2024-02-15T09:25:39;101044.31;;;12.61
65316;BMP280;51920;53.952;10.292;2024-02-15T09:28:06;101050.16;;;12.66
65316;BMP280;51920;53.952;10.292;2024-02-15T09:30:33;101047.84;;;12.68
65316;BMP280;51920;53.952;10.292;2024-02-15T09:33:02;101051.69;;;12.60
65316;BMP280;51920;53.952;10.292;2024-02-15T09:35:31;101048.59;;;12.58
65316;BMP280;51920;53.952;10.292;2024-02-15T09:37:58;101044.28;;;12.50
65316;BMP280;51920;53.952;10.292;2024-02-15T09:40:25;101051.28;;;12.51
65316;BMP280;51920;53.952;10.292;2024-02-15T09:42:55;101051.66;;;12.42
65316;BMP280;51920;53.952;10.292;2024-02-15T09:45:22;101054.38;;;12.39
65316;BMP280;51920;53.952;10.292;2024-02-15T09:47:51;101043.88;;;12.41
65316;BMP280;51920;53.952;10.292;2024-02-15T09:50:21;101046.56;;;12.34
65316;BMP280;51920;53.952;10.292;2024-02-15T09:52:52;101046.56;;;12.34
65316;BMP280;51920;53.952;10.292;2024-02-15T09:55:20;101047.72;;;12.40
65316;BMP280;51920;53.952;10.292;2024-02-15T09:57:50;101041.53;;;12.39
65316;BMP280;51920;53.952;10.292;2024-02-15T10:00:17;101046.22;;;12.42
65316;BMP280;51920;53.952;10.292;2024-02-15T10:02:47;101048.16;;;12.42
65316;BMP280;51920;53.952;10.292;2024-02-15T10:05:15;101048.94;;;12.39
65316;BMP280;51920;53.952;10.292;2024-02-15T10:07:43;101046.19;;;12.35
65316;BMP280;51920;53.952;10.292;2024-02-15T10:10:20;101045.00;;;12.36
65316;BMP280;51920;53.952;10.292;2024-02-15T10:12:51;101043.88;;;12.37
65316;BMP280;51920;53.952;10.292;2024-02-15T10:18:08;101042.72;;;12.42
65316;BMP280;51920;53.952;10.292;2024-02-15T10:20:37;101040.81;;;12.46
65316;BMP280;51920;53.952;10.292;2024-02-15T10:23:12;101036.13;;;12.46
65316;BMP280;51920;53.952;10.292;2024-02-15T10:25:40;101047.78;;;12.47
65316;BMP280;51920;53.952;10.292;2024-02-15T10:28:09;101046.59;;;12.48
65316;BMP280;51920;53.952;10.292;2024-02-15T10:30:42;101046.25;;;12.60
65316;BMP280;51920;53.952;10.292;2024-02-15T10:33:28;101041.59;;;12.57
65316;BMP280;51920;53.952;10.292;2024-02-15T10:36:05;101041.59;;;12.57
65316;BMP280;51920;53.952;10.292;2024-02-15T10:38:33;101040.06;;;12.63
65316;BMP280;51920;53.952;10.292;2024-02-15T10:41:03;101038.50;;;12.62
65316;BMP280;51920;53.952;10.292;2024-02-15T10:43:33;101042.78;;;12.63
65316;BMP280;51920;53.952;10.292;2024-02-15T10:46:00;101039.28;;;12.66
65316;BMP280;51920;53.952;10.292;2024-02-15T10:48:27;101039.34;;;12.81
65316;BMP280;51920;53.952;10.292;2024-02-15T10:50:59;101034.66;;;12.78
65316;BMP280;51920;53.952;10.292;2024-02-15T10:53:26;101036.59;;;12.77
65316;BMP280;51920;53.952;10.292;2024-02-15T10:58:50;101033.88;;;12.70
65316;BMP280;51920;53.952;10.292;2024-02-15T11:01:17;101040.09;;;12.81
65316;BMP280;51920;53.952;10.292;2024-02-15T11:06:20;101036.63;;;12.81
65316;BMP280;51920;53.952;10.292;2024-02-15T11:08:48;101038.53;;;12.84
65316;BMP280;51920;53.952;10.292;2024-02-15T11:11:15;101033.09;;;12.84
65316;BMP280;51920;53.952;10.292;2024-02-15T11:13:43;101037.78;;;12.87
65316;BMP280;51920;53.952;10.292;2024-02-15T11:16:09;101032.72;;;12.89
65316;BMP280;51920;53.952;10.292;2024-02-15T11:18:46;101035.44;;;12.96
65316;BMP280;51920;53.952;10.292;2024-02-15T11:21:53;101036.59;;;12.95
65316;BMP280;51920;53.952;10.292;2024-02-15T11:24:28;101037.00;;;12.94
65316;BMP280;51920;53.952;10.292;2024-02-15T11:26:59;101023.41;;;13.01
65316;BMP280;51920;53.952;10.292;2024-02-15T11:32:41;101023.03;;;13.06
65316;BMP280;51920;53.952;10.292;2024-02-15T11:35:19;101017.56;;;13.09
65316;BMP280;51920;53.952;10.292;2024-02-15T11:40:21;101015.25;;;13.12
65316;BMP280;51920;53.952;10.292;2024-02-15T11:42:52;101009.81;;;13.12
65316;BMP280;51920;53.952;10.292;2024-02-15T11:45:20;101008.25;;;13.14
65316;BMP280;51920;53.952;10.292;2024-02-15T11:47:49;101005.53;;;13.10
65316;BMP280;51920;53.952;10.292;2024-02-15T11:50:18;101012.94;;;13.14
65316;BMP280;51920;53.952;10.292;2024-02-15T11:52:47;101007.84;;;13.19
65316;BMP280;51920;53.952;10.292;2024-02-15T11:55:20;101005.53;;;13.18
65316;BMP280;51920;53.952;10.292;2024-02-15T11:57:58;101001.63;;;13.15
65316;BMP280;51920;53.952;10.292;2024-02-15T12:00:37;100998.91;;;13.26
65316;BMP280;51920;53.952;10.292;2024-02-15T12:03:24;100985.31;;;13.19
65316;BMP280;51920;53.952;10.292;2024-02-15T12:06:17;100991.91;;;13.18
65316;BMP280;51920;53.952;10.292;2024-02-15T12:09:03;100986.47;;;13.18
65316;BMP280;51920;53.952;10.292;2024-02-15T12:11:57;100985.31;;;13.22
65316;BMP280;51920;53.952;10.292;2024-02-15T12:14:43;100988.03;;;13.26
65316;BMP280;51920;53.952;10.292;2024-02-15T12:17:28;100979.88;;;13.22
65316;BMP280;51920;53.952;10.292;2024-02-15T12:20:14;100976.75;;;13.24
65316;BMP280;51920;53.952;10.292;2024-02-15T12:22:45;100977.53;;;13.28
65316;BMP280;51920;53.952;10.292;2024-02-15T12:25:16;100979.88;;;13.33
65316;BMP280;51920;53.952;10.292;2024-02-15T12:27:45;100983.34;;;13.37
65316;BMP280;51920;53.952;10.292;2024-02-15T12:30:14;100976.34;;;13.43
65316;BMP280;51920;53.952;10.292;2024-02-15T12:32:42;100976.75;;;13.35
65316;BMP280;51920;53.952;10.292;2024-02-15T12:35:13;100971.72;;;13.26
65316;BMP280;51920;53.952;10.292;2024-02-15T12:37:43;100975.97;;;13.38
65316;BMP280;51920;53.952;10.292;2024-02-15T12:40:15;100976.34;;;13.43
65316;BMP280;51920;53.952;10.292;2024-02-15T12:42:44;100973.66;;;13.40
65316;BMP280;51920;53.952;10.292;2024-02-15T12:45:18;100974.44;;;13.33
65316;BMP280;51920;53.952;10.292;2024-02-15T12:47:51;100972.47;;;13.30
65316;BMP280;51920;53.952;10.292;2024-02-15T12:50:20;100966.66;;;13.28
65316;BMP280;51920;53.952;10.292;2024-02-15T12:52:49;100968.59;;;13.35
65316;BMP280;51920;53.952;10.292;2024-02-15T12:55:18;100966.22;;;13.44
65316;BMP280;51920;53.952;10.292;2024-02-15T12:57:51;100958.09;;;13.40
65316;BMP280;51920;53.952;10.292;2024-02-15T13:02:51;100959.25;;;13.46
65316;BMP280;51920;53.952;10.292;2024-02-15T13:05:18;100960.78;;;13.44
65316;BMP280;51920;53.952;10.292;2024-02-15T13:07:46;100960.81;;;13.40
65316;BMP280;51920;53.952;10.292;2024-02-15T13:10:13;100959.25;;;13.43
65316;BMP280;51920;53.952;10.292;2024-02-15T13:12:45;100957.69;;;13.42
65316;BMP280;51920;53.952;10.292;2024-02-15T13:15:14;100963.16;;;13.35
65316;BMP280;51920;53.952;10.292;2024-02-15T13:17:45;100958.47;;;13.39
65316;BMP280;51920;53.952;10.292;2024-02-15T13:20:13;100961.97;;;13.32
65316;BMP280;51920;53.952;10.292;2024-02-15T13:22:42;100951.50;;;13.41
65316;BMP280;51920;53.952;10.292;2024-02-15T13:25:10;100957.28;;;13.43
65316;BMP280;51920;53.952;10.292;2024-02-15T13:27:37;100943.69;;;13.36
65316;BMP280;51920;53.952;10.292;2024-02-15T13:30:05;100943.72;;;13.40
65316;BMP280;51920;53.952;10.292;2024-02-15T13:32:41;100947.94;;;13.44
65316;BMP280;51920;53.952;10.292;2024-02-15T13:35:09;100938.25;;;13.43
65316;BMP280;51920;53.952;10.292;2024-02-15T13:37:48;100934.78;;;13.39
65316;BMP280;51920;53.952;10.292;2024-02-15T13:40:15;100936.69;;;13.39
65316;BMP280;51920;53.952;10.292;2024-02-15T13:42:46;100938.28;;;13.32
65316;BMP280;51920;53.952;10.292;2024-02-15T13:45:16;100928.56;;;13.28
65316;BMP280;51920;53.952;10.292;2024-02-15T13:47:45;100934.41;;;13.26
65316;BMP280;51920;53.952;10.292;2024-02-15T13:50:13;100932.47;;;13.27
65316;BMP280;51920;53.952;10.292;2024-02-15T13:52:44;100928.59;;;13.21
65316;BMP280;51920;53.952;10.292;2024-02-15T13:55:12;100927.81;;;13.24
65316;BMP280;51920;53.952;10.292;2024-02-15T13:57:41;100929.34;;;13.18
65316;BMP280;51920;53.952;10.292;2024-02-15T14:00:11;100917.31;;;13.26
65316;BMP280;51920;53.952;10.292;2024-02-15T14:02:52;100921.97;;;13.25
65316;BMP280;51920;53.952;10.292;2024-02-15T14:05:23;100922.75;;;13.22
65316;BMP280;51920;53.952;10.292;2024-02-15T14:07:55;100925.09;;;13.17
65316;BMP280;51920;53.952;10.292;2024-02-15T14:10:24;100916.94;;;13.09
65316;BMP280;51920;53.952;10.292;2024-02-15T14:12:52;100923.94;;;13.10